Time;durP1;ratioP1;P1;durP2;ratioP2;P2;SDS_P1;SDS_P2;PMS_P1;PMS_P2;Temp;Humidity;BMP_temperature;BMP_pressure;BME280_temperature;BME280_humidity;BME280_pressure;Samples;Min_cycle;Max_cycle;Signal;HPM_P1;HPM_P2
2023/05/30 00:01:35;;;;;;;16.60;5.70;;;;;;;13.51;55.13;100542.27;134073;1298;23159;-73
2023/05/30 00:04:35;;;;;;;21.00;6.50;;;;;;;13.46;55.16;100548.13;134085;1299;22360;-72
2023/05/30 00:07:36;;;;;;;10.90;5.30;;;;;;;13.38;55.24;100544.78;134080;1298;22380;-73
2023/05/30 00:10:37;;;;;;;9.70;5.90;;;;;;;13.33;55.45;100545.90;134086;1300;22335;-72
2023/05/30 00:13:37;;;;;;;15.10;6.10;;;;;;;13.27;55.58;100553.25;134106;1297;23134;-72
2023/05/30 00:16:38;;;;;;;10.00;6.50;;;;;;;13.22;55.80;100551.98;134116;1297;22444;-73
2023/05/30 00:19:39;;;;;;;12.70;5.80;;;;;;;13.19;56.03;100555.10;134136;1297;23100;-72
2023/05/30 00:22:43;;;;;;;15.20;6.20;;;;;;;13.15;56.15;100553.61;134069;1297;22348;-73
2023/05/30 00:25:45;;;;;;;10.50;5.70;;;;;;;13.12;56.25;100553.75;133960;1304;22606;-75
2023/05/30 00:28:46;;;;;;;10.20;6.00;;;;;;;13.11;56.27;100553.83;133973;1300;23082;-73
2023/05/30 00:31:46;;;;;;;12.30;5.90;;;;;;;13.09;56.32;100556.73;134088;1305;22418;-75
2023/05/30 00:34:47;;;;;;;15.80;5.80;;;;;;;13.07;56.40;100551.98;134121;1298;23240;-72
2023/05/30 00:37:47;;;;;;;11.00;5.70;;;;;;;13.05;56.52;100553.44;134105;1298;22482;-71
2023/05/30 00:40:48;;;;;;;10.70;5.50;;;;;;;13.02;56.79;100549.70;134125;1297;22409;-72
2023/05/30 00:43:49;;;;;;;11.80;5.70;;;;;;;12.97;56.76;100549.53;133990;1301;22425;-72
2023/05/30 00:46:51;;;;;;;13.90;5.80;;;;;;;12.94;56.96;100549.89;133802;1301;23171;-72
2023/05/30 00:49:53;;;;;;;12.90;5.60;;;;;;;12.90;56.80;100548.41;134112;1298;22177;-72
2023/05/30 00:52:55;;;;;;;9.80;5.40;;;;;;;12.87;57.09;100549.21;134081;1297;22400;-73
2023/05/30 00:55:55;;;;;;;10.10;5.30;;;;;;;12.83;57.15;100549.48;134132;1298;22378;-73
2023/05/30 00:58:57;;;;;;;;;;;;;;;12.81;57.20;100552.60;134075;1297;24725;-72
2023/05/30 01:01:57;;;;;;;9.50;5.30;;;;;;;12.77;57.42;100553.30;134113;1298;22547;-72
2023/05/30 01:04:59;;;;;;;11.10;6.00;;;;;;;12.74;57.20;100550.67;134152;1297;22361;-72
2023/05/30 01:08:00;;;;;;;12.00;5.30;;;;;;;12.72;57.20;100549.64;133973;1300;22357;-72
2023/05/30 01:11:26;;;;;;;11.40;5.80;;;;;;;12.72;57.15;100553.18;133978;1301;22465;-72
2023/05/30 01:14:30;;;;;;;8.10;5.10;;;;;;;12.70;57.39;100553.46;133884;1305;22346;-72
2023/05/30 01:18:04;;;;;;;7.90;5.60;;;;;;;12.67;57.31;100556.42;134024;1298;22118;-72
2023/05/30 01:21:13;;;;;;;9.60;5.40;;;;;;;12.62;57.38;100554.16;134146;1301;22358;-72
2023/05/30 01:24:36;;;;;;;11.80;5.90;;;;;;;12.59;57.47;100554.48;134020;1300;22474;-72
2023/05/30 01:27:47;;;;;;;9.90;5.30;;;;;;;12.55;57.46;100551.55;134165;1298;22416;-73
2023/05/30 01:30:53;;;;;;;10.20;5.60;;;;;;;12.51;57.42;100549.98;133945;1300;22413;-74
2023/05/30 01:33:54;;;;;;;10.30;4.90;;;;;;;12.50;57.92;100549.43;134020;1298;23643;-72
2023/05/30 01:36:55;;;;;;;12.00;5.10;;;;;;;12.51;58.23;100547.36;133983;1300;22434;-72
2023/05/30 01:39:55;;;;;;;11.30;5.20;;;;;;;12.51;58.28;100547.10;134121;1298;22436;-72
2023/05/30 01:43:01;;;;;;;11.00;5.10;;;;;;;12.51;58.37;100544.64;134112;1299;22372;-72
2023/05/30 01:46:20;;;;;;;11.00;5.20;;;;;;;12.50;58.68;100547.08;133805;1303;22421;-72
2023/05/30 01:49:35;;;;;;;11.00;5.50;;;;;;;12.51;59.01;100551.80;133979;1298;22369;-72
2023/05/30 01:52:40;;;;;;;11.30;5.40;;;;;;;12.51;59.36;100556.84;134008;1298;22208;-72
2023/05/30 01:55:44;;;;;;;10.00;5.40;;;;;;;12.51;59.63;100558.17;134007;1298;22508;-71
2023/05/30 01:58:48;;;;;;;14.10;5.40;;;;;;;12.49;59.73;100553.25;133971;1300;22462;-72
2023/05/30 02:01:51;;;;;;;10.60;5.90;;;;;;;12.45;59.38;100551.02;134163;1298;22473;-72
2023/05/30 02:04:52;;;;;;;9.50;5.10;;;;;;;12.40;59.36;100552.47;134153;1298;22430;-72
2023/05/30 02:07:52;;;;;;;18.00;5.50;;;;;;;12.34;59.53;100556.30;134020;1300;22392;-71
2023/05/30 02:10:53;;;;;;;8.00;4.70;;;;;;;12.29;59.85;100560.70;134006;1293;22425;-75
2023/05/30 02:13:53;;;;;;;14.30;4.80;;;;;;;12.27;60.04;100560.99;134174;1298;22578;-72
2023/05/30 02:16:55;;;;;;;8.80;5.90;;;;;;;12.22;60.31;100559.27;134184;1300;22847;-73
2023/05/30 02:19:57;;;;;;;10.90;4.90;;;;;;;12.15;60.48;100561.23;133983;1300;23076;-72
2023/05/30 02:22:57;;;;;;;10.30;6.00;;;;;;;12.10;60.57;100559.98;134109;1297;22378;-73
2023/05/30 02:25:58;;;;;;;15.30;6.20;;;;;;;12.02;60.60;100561.03;133990;1298;22396;-73
2023/05/30 02:28:59;;;;;;;;;;;;;;;11.98;60.78;100564.64;134066;1298;22472;-74
2023/05/30 02:32:00;;;;;;;11.60;6.50;;;;;;;11.92;60.72;100565.50;134124;1300;22213;-72
2023/05/30 02:35:00;;;;;;;13.50;7.10;;;;;;;11.87;60.55;100564.21;134200;1290;22396;-72
2023/05/30 02:38:01;;;;;;;14.40;7.10;;;;;;;11.84;60.48;100571.23;133977;1301;22446;-75
2023/05/30 02:41:01;;;;;;;17.10;8.10;;;;;;;11.82;60.62;100575.65;134116;1297;22447;-72
2023/05/30 02:44:04;;;;;;;19.00;6.70;;;;;;;11.79;60.39;100573.96;134017;1292;22412;-72
2023/05/30 02:47:05;;;;;;;12.80;6.80;;;;;;;11.76;60.20;100576.91;133992;1297;22425;-72
2023/05/30 02:50:07;;;;;;;16.40;6.50;;;;;;;11.75;60.20;100570.14;134040;1301;22441;-72
2023/05/30 02:53:11;;;;;;;15.30;5.80;;;;;;;11.73;60.15;100571.72;134119;1301;22422;-72
2023/05/30 02:56:11;;;;;;;10.20;5.50;;;;;;;11.71;60.16;100576.69;134195;1297;22397;-72
2023/05/30 02:59:34;;;;;;;10.90;5.40;;;;;;;11.72;60.24;100583.55;134159;1298;22600;-72
2023/05/30 03:02:42;;;;;;;10.10;4.90;;;;;;;11.74;60.20;100586.31;133992;1300;22451;-72
2023/05/30 03:05:49;;;;;;;12.20;4.70;;;;;;;11.80;60.22;100596.13;133932;1301;22430;-73
2023/05/30 03:09:00;;;;;;;11.40;4.60;;;;;;;11.86;60.33;100598.69;133989;1299;22493;-72
2023/05/30 03:12:01;;;;;;;13.30;5.00;;;;;;;11.93;60.39;100602.27;134112;1299;22431;-72
2023/05/30 03:15:05;;;;;;;11.50;4.20;;;;;;;11.99;60.37;100598.55;134050;1298;22480;-71
2023/05/30 03:18:08;;;;;;;13.80;4.90;;;;;;;12.04;60.15;100601.52;134027;1300;22530;-73
2023/05/30 03:21:10;;;;;;;14.60;4.90;;;;;;;12.11;60.04;100601.96;134042;1298;22313;-73
2023/05/30 03:24:12;;;;;;;10.40;4.40;;;;;;;12.20;60.08;100603.63;133991;1298;22426;-72
2023/05/30 03:27:15;;;;;;;12.60;5.30;;;;;;;12.32;60.03;100600.86;133965;1300;22482;-72
2023/05/30 03:30:18;;;;;;;10.90;4.60;;;;;;;12.47;59.80;100601.90;133980;1300;23018;-71
2023/05/30 03:33:20;;;;;;;16.80;5.20;;;;;;;12.65;59.69;100602.61;133953;1299;22358;-72
2023/05/30 03:36:21;;;;;;;13.70;5.10;;;;;;;12.82;59.57;100605.89;134131;1298;22381;-72
2023/05/30 03:39:22;;;;;;;;;;;;;;;13.00;59.36;100612.27;134025;1298;22462;-73
2023/05/30 03:42:22;;;;;;;12.30;4.70;;;;;;;13.20;59.34;100616.42;134140;1305;22393;-73
2023/05/30 03:45:23;;;;;;;12.90;4.70;;;;;;;13.48;59.02;100615.95;133952;1304;22871;-74
2023/05/30 03:48:23;;;;;;;8.90;4.70;;;;;;;13.77;58.58;100611.91;134120;1298;22449;-74
2023/05/30 03:51:24;;;;;;;10.20;5.00;;;;;;;14.05;58.17;100613.04;134113;1298;23692;-72
2023/05/30 03:54:25;;;;;;;12.70;4.80;;;;;;;14.24;57.81;100612.23;134105;1300;23275;-72
2023/05/30 03:57:25;;;;;;;11.10;4.90;;;;;;;14.49;57.53;100620.20;134133;1297;22482;-72
2023/05/30 04:00:26;;;;;;;12.40;4.50;;;;;;;14.79;57.07;100622.18;134029;1299;22460;-72
2023/05/30 04:03:30;;;;;;;11.90;4.30;;;;;;;15.11;56.81;100621.95;133955;1301;22323;-73
2023/05/30 04:06:31;;;;;;;;;;;;;;;15.48;56.31;100626.71;133995;1300;22461;-73
2023/05/30 04:09:31;;;;;;;12.50;5.20;;;;;;;15.83;55.82;100632.47;134020;1298;22455;-72
2023/05/30 04:12:32;;;;;;;9.50;4.60;;;;;;;16.19;55.30;100636.73;134109;1299;22329;-74
2023/05/30 04:15:33;;;;;;;11.00;5.00;;;;;;;16.52;54.73;100634.58;133993;1300;22425;-72
2023/05/30 04:18:36;;;;;;;12.20;4.60;;;;;;;16.84;54.06;100634.85;134115;1300;22361;-73
2023/05/30 04:21:36;;;;;;;9.60;4.20;;;;;;;17.08;53.64;100641.41;134133;1298;22444;-73
2023/05/30 04:24:37;;;;;;;;;;;;;;;17.43;53.06;100648.00;134134;1298;23115;-76
2023/05/30 04:27:39;;;;;;;8.20;4.10;;;;;;;17.70;52.42;100652.37;133974;1301;22437;-73
2023/05/30 04:30:42;;;;;;;15.30;5.70;;;;;;;17.74;51.59;100653.46;133983;1298;22362;-73
2023/05/30 04:33:45;;;;;;;16.40;5.00;;;;;;;17.93;51.46;100656.90;134071;1298;23150;-72
2023/05/30 04:36:46;;;;;;;11.20;4.90;;;;;;;18.21;50.69;100658.95;134070;1299;23155;-73
2023/05/30 04:39:47;;;;;;;15.10;4.80;;;;;;;18.38;50.30;100655.55;134126;1298;22407;-74
2023/05/30 04:42:51;;;;;;;10.60;4.00;;;;;;;18.59;49.99;100653.34;134080;1298;23285;-78
2023/05/30 04:45:51;;;;;;;11.10;4.70;;;;;;;18.88;49.60;100654.89;134043;1299;23047;-74
2023/05/30 04:48:53;;;;;;;10.80;4.30;;;;;;;19.12;49.15;100654.48;134064;1298;22479;-73
2023/05/30 04:51:54;;;;;;;14.70;4.80;;;;;;;19.35;48.69;100654.84;134081;1298;22478;-74
2023/05/30 04:54:55;;;;;;;10.40;4.00;;;;;;;19.58;48.41;100655.06;134114;1298;23343;-74
2023/05/30 04:57:55;;;;;;;9.30;3.90;;;;;;;19.82;47.81;100658.44;133987;1306;23112;-74
2023/05/30 05:00:59;;;;;;;9.30;4.60;;;;;;;19.96;47.39;100660.92;134083;1298;22353;-73
2023/05/30 05:04:00;;;;;;;10.30;4.00;;;;;;;20.10;47.11;100663.62;133988;1301;22220;-73
2023/05/30 05:07:00;;;;;;;10.30;4.20;;;;;;;20.26;46.08;100662.86;134094;1298;22196;-72
2023/05/30 05:10:02;;;;;;;9.30;3.80;;;;;;;20.31;46.01;100665.33;134098;1298;22527;-74
2023/05/30 05:13:02;;;;;;;10.40;3.80;;;;;;;20.33;45.47;100667.08;133971;1302;23087;-73
2023/05/30 05:16:04;;;;;;;10.80;3.50;;;;;;;19.96;44.54;100665.55;134090;1300;22221;-75
2023/05/30 05:19:04;;;;;;;10.90;3.90;;;;;;;19.70;44.76;100665.98;134125;1298;22403;-73
2023/05/30 05:22:05;;;;;;;6.70;3.60;;;;;;;19.89;44.96;100663.36;134093;1298;22423;-74
2023/05/30 05:25:06;;;;;;;9.40;3.80;;;;;;;19.86;44.45;100664.91;134093;1298;22390;-73
2023/05/30 05:28:07;;;;;;;11.30;4.10;;;;;;;20.09;44.72;100669.30;134058;1299;22221;-77
2023/05/30 05:31:08;;;;;;;12.80;3.90;;;;;;;20.56;44.49;100673.01;133987;1301;23121;-73
2023/05/30 05:34:08;;;;;;;12.80;3.50;;;;;;;20.90;44.33;100674.21;134095;1298;22935;-81
2023/05/30 05:37:11;;;;;;;10.30;3.70;;;;;;;21.26;43.97;100677.40;134061;1298;23607;-74
2023/05/30 05:40:12;;;;;;;8.90;3.60;;;;;;;21.33;43.56;100680.57;134047;1299;22432;-73
2023/05/30 05:43:13;;;;;;;8.30;3.50;;;;;;;21.57;43.50;100682.86;134068;1298;22516;-77
2023/05/30 05:46:14;;;;;;;13.10;3.70;;;;;;;21.94;43.20;100687.77;134084;1299;22491;-74
2023/05/30 05:49:15;;;;;;;9.10;3.60;;;;;;;22.17;42.66;100693.05;133846;1298;22241;-74
2023/05/30 05:52:15;;;;;;;10.30;4.20;;;;;;;22.23;42.18;100690.90;133950;1298;22616;-77
2023/05/30 05:55:16;;;;;;;9.80;3.20;;;;;;;22.41;42.15;100687.48;133859;1299;22385;-74
2023/05/30 05:58:17;;;;;;;14.10;4.20;;;;;;;22.66;41.85;100683.51;133947;1300;22424;-79
2023/05/30 06:01:17;;;;;;;8.80;3.30;;;;;;;22.80;41.56;100691.73;133822;1300;23071;-74
2023/05/30 06:04:18;;;;;;;10.80;4.20;;;;;;;22.94;41.21;100692.46;133902;1300;22371;-78
2023/05/30 06:07:19;;;;;;;11.10;3.50;;;;;;;23.02;40.89;100692.79;133948;1298;23078;-74
2023/05/30 06:10:20;;;;;;;13.30;4.00;;;;;;;23.09;40.76;100694.56;133741;1300;23053;-78
2023/05/30 06:13:20;;;;;;;10.40;4.10;;;;;;;23.10;40.52;100700.16;133976;1300;23210;-73
2023/05/30 06:16:21;;;;;;;10.20;3.70;;;;;;;23.19;40.44;100703.23;133937;1299;22900;-77
2023/05/30 06:19:22;;;;;;;9.20;3.80;;;;;;;23.34;40.00;100704.39;133837;1300;22333;-72
2023/05/30 06:22:23;;;;;;;11.20;3.60;;;;;;;23.48;39.82;100710.77;133871;1299;22335;-77
2023/05/30 06:25:25;;;;;;;12.50;4.00;;;;;;;23.35;39.69;100711.67;133935;1299;22930;-74
2023/05/30 06:28:26;;;;;;;8.90;3.60;;;;;;;23.47;39.74;100707.34;133921;1300;22406;-77
2023/05/30 06:31:27;;;;;;;15.10;3.90;;;;;;;23.60;39.31;100709.66;133958;1285;22469;-72
2023/05/30 06:34:27;;;;;;;8.60;3.40;;;;;;;23.49;39.36;100712.77;133944;1301;22349;-71
2023/05/30 06:37:28;;;;;;;8.70;4.10;;;;;;;23.66;39.32;100716.61;133946;1301;22453;-77
2023/05/30 06:40:29;;;;;;;8.10;3.20;;;;;;;23.86;38.81;100725.06;133893;1299;22490;-75
2023/05/30 06:43:29;;;;;;;10.50;3.60;;;;;;;23.82;38.29;100727.00;133830;1299;22386;-73
2023/05/30 06:46:30;;;;;;;9.30;3.20;;;;;;;23.65;38.43;100724.13;133967;1301;22402;-72
2023/05/30 06:49:31;;;;;;;15.60;4.00;;;;;;;23.69;38.60;100727.81;134094;1298;23092;-72
2023/05/30 06:52:32;;;;;;;10.90;3.90;;;;;;;23.64;38.40;100729.54;134106;1299;22382;-72
2023/05/30 06:55:32;;;;;;;13.70;4.10;;;;;;;23.55;38.49;100732.58;134034;1298;23275;-75
2023/05/30 06:58:33;;;;;;;9.30;3.50;;;;;;;23.56;38.56;100731.42;134131;1301;22361;-72
2023/05/30 07:01:34;;;;;;;14.20;3.60;;;;;;;23.42;38.26;100735.38;134117;1298;22984;-73
2023/05/30 07:04:36;;;;;;;6.80;3.30;;;;;;;23.36;38.60;100743.00;134125;1288;22376;-72
2023/05/30 07:07:39;;;;;;;16.90;3.50;;;;;;;23.51;38.35;100742.30;134151;1297;22484;-76
2023/05/30 07:10:39;;;;;;;7.70;3.30;;;;;;;23.66;38.50;100743.33;134122;1299;22412;-73
2023/05/30 07:13:40;;;;;;;9.90;3.60;;;;;;;23.74;38.11;100742.06;134094;1298;23000;-73
2023/05/30 07:16:41;;;;;;;7.80;3.30;;;;;;;23.73;38.42;100741.65;134108;1301;22236;-73
2023/05/30 07:19:42;;;;;;;7.40;3.10;;;;;;;23.93;38.44;100742.77;134063;1301;22448;-75
2023/05/30 07:22:42;;;;;;;12.20;3.10;;;;;;;24.01;38.07;100747.94;134120;1298;22527;-71
2023/05/30 07:25:43;;;;;;;9.70;3.10;;;;;;;24.01;37.95;100750.15;134078;1298;22418;-72
2023/05/30 07:28:44;;;;;;;17.00;3.70;;;;;;;23.94;37.52;100752.45;134147;1298;22459;-74
2023/05/30 07:31:44;;;;;;;8.40;3.60;;;;;;;24.01;37.70;100752.15;134071;1299;22487;-73
2023/05/30 07:34:45;;;;;;;13.20;3.80;;;;;;;24.16;37.54;100753.75;134100;1298;22394;-74
2023/05/30 07:37:46;;;;;;;10.60;3.60;;;;;;;24.18;37.30;100756.13;134064;1298;22387;-74
2023/05/30 07:40:47;;;;;;;8.20;3.20;;;;;;;24.13;37.34;100753.44;133947;1298;22499;-75
2023/05/30 07:43:50;;;;;;;12.50;3.60;;;;;;;24.09;36.74;100752.31;134144;1298;22401;-72
2023/05/30 07:46:51;;;;;;;13.00;3.30;;;;;;;23.99;36.65;100755.10;134120;1298;22537;-70
2023/05/30 07:49:52;;;;;;;9.80;3.50;;;;;;;24.15;37.11;100756.27;133972;1293;22412;-67
2023/05/30 07:53:00;;;;;;;5.50;3.00;;;;;;;24.36;36.63;100755.77;134081;1298;22227;-65
2023/05/30 07:56:02;;;;;;;6.70;3.10;;;;;;;24.26;36.46;100756.33;134016;1298;23015;-73
2023/05/30 07:59:03;;;;;;;5.40;2.40;;;;;;;24.22;36.20;100757.92;134082;1299;22407;-73
2023/05/30 08:02:04;;;;;;;8.10;3.30;;;;;;;24.35;36.45;100753.36;133959;1305;229094;-74
2023/05/30 08:05:08;;;;;;;9.90;3.10;;;;;;;24.81;36.53;100745.53;134156;1298;22208;-73
2023/05/30 08:08:08;;;;;;;13.00;3.80;;;;;;;24.86;36.05;100741.87;134133;1291;22355;-74
2023/05/30 08:11:10;;;;;;;14.10;3.50;;;;;;;24.86;36.29;100745.06;134066;1298;22501;-73
2023/05/30 08:14:10;;;;;;;10.10;3.30;;;;;;;24.95;36.27;100743.03;134119;1298;23322;-73
2023/05/30 08:17:12;;;;;;;7.40;2.80;;;;;;;24.96;35.36;100744.63;134100;1303;22470;-73
2023/05/30 08:20:13;;;;;;;7.30;2.70;;;;;;;24.74;34.43;100741.86;134177;1299;23032;-73
2023/05/30 08:23:14;;;;;;;10.90;3.10;;;;;;;24.39;34.38;100744.33;134079;1299;22371;-73
2023/05/30 08:26:15;;;;;;;8.00;3.00;;;;;;;24.27;33.87;100747.08;134089;1298;22349;-73
2023/05/30 08:29:16;;;;;;;6.50;2.90;;;;;;;24.16;34.21;100741.08;134125;1298;23376;-73
2023/05/30 08:32:18;;;;;;;17.90;3.20;;;;;;;24.16;33.84;100741.62;134052;1300;22464;-74
2023/05/30 08:35:18;;;;;;;7.70;2.90;;;;;;;24.17;33.99;100741.35;133897;1300;22515;-78
2023/05/30 08:38:19;;;;;;;12.30;2.60;;;;;;;24.39;34.03;100736.91;134126;1299;23111;-73
2023/05/30 08:41:23;;;;;;;9.80;2.80;;;;;;;24.54;33.96;100738.01;134100;1298;22827;-74
2023/05/30 08:44:23;;;;;;;7.40;2.60;;;;;;;24.69;33.71;100740.27;134104;1298;22342;-73
2023/05/30 08:47:24;;;;;;;6.60;2.80;;;;;;;24.68;33.44;100739.27;134148;1285;22307;-74
2023/05/30 08:50:26;;;;;;;8.70;3.30;;;;;;;24.56;33.18;100735.88;134040;1298;22331;-73
2023/05/30 08:53:37;;;;;;;9.80;2.80;;;;;;;24.48;33.52;100741.53;134075;1301;22223;-74
2023/05/30 08:56:42;;;;;;;7.50;2.40;;;;;;;24.67;32.81;100743.55;134052;1298;22394;-74
2023/05/30 08:59:44;;;;;;;6.60;2.70;;;;;;;24.86;32.27;100741.30;134134;1302;22513;-75
2023/05/30 09:02:46;;;;;;;6.90;2.80;;;;;;;24.82;31.82;100747.60;134080;1298;22206;-73
2023/05/30 09:05:47;;;;;;;7.30;2.80;;;;;;;24.63;32.20;100750.09;134071;1297;22472;-73
2023/05/30 09:08:51;;;;;;;8.10;2.70;;;;;;;24.79;32.30;100751.40;134112;1301;22225;-73
2023/05/30 09:11:53;;;;;;;9.20;2.70;;;;;;;24.98;31.80;100747.77;134066;1299;23249;-74
2023/05/30 09:14:54;;;;;;;9.00;2.90;;;;;;;24.69;31.82;100750.58;134090;1298;22360;-75
2023/05/30 09:17:55;;;;;;;5.70;2.80;;;;;;;24.53;31.85;100754.54;134105;1299;22396;-73
2023/05/30 09:20:56;;;;;;;5.70;2.40;;;;;;;24.59;31.60;100754.31;134133;1298;22380;-74
2023/05/30 09:24:03;;;;;;;7.50;2.80;;;;;;;25.01;31.78;100750.73;134093;1302;22360;-74
2023/05/30 09:27:05;;;;;;;9.80;2.60;;;;;;;25.06;31.71;100747.89;133949;1298;22459;-84
2023/05/30 09:30:19;;;;;;;;;;;;;;;;;;;;;
2023/05/30 09:33:21;;;;;;;5.20;2.40;;;;;;;24.77;32.77;100749.25;133947;1303;22434;-77
2023/05/30 09:36:24;;;;;;;8.60;2.50;;;;;;;24.53;31.91;100748.54;134118;1298;22482;-81
2023/05/30 09:39:26;;;;;;;6.40;2.80;;;;;;;24.07;31.99;100750.42;134127;1292;22226;-79
2023/05/30 09:42:38;;;;;;;8.20;2.50;;;;;;;24.16;32.22;100748.45;133965;1300;23074;-76
2023/05/30 09:45:39;;;;;;;9.70;2.60;;;;;;;24.27;32.32;100745.55;133980;1295;23131;-77
2023/05/30 09:48:40;;;;;;;9.00;2.60;;;;;;;24.29;31.99;100743.38;134134;1298;23006;-77
2023/05/30 09:51:41;;;;;;;7.60;2.60;;;;;;;24.02;32.27;100747.25;134070;1300;22402;-77
2023/05/30 09:54:43;;;;;;;6.60;2.70;;;;;;;23.96;32.71;100749.88;134091;1298;22363;-79
2023/05/30 09:57:48;;;;;;;6.20;2.50;;;;;;;24.22;32.60;100747.25;134126;1301;22235;-77
2023/05/30 10:00:53;;;;;;;7.60;2.80;;;;;;;24.39;32.57;100746.38;133779;1304;22127;-77
2023/05/30 10:03:56;;;;;;;11.60;2.90;;;;;;;24.32;32.41;100749.23;134115;1301;22383;-77
2023/05/30 10:06:56;;;;;;;10.60;2.80;;;;;;;24.24;32.52;100754.65;134021;1299;22356;-77
2023/05/30 10:10:00;;;;;;;7.00;2.60;;;;;;;24.28;32.33;100758.33;134018;1301;22138;-77
2023/05/30 10:13:02;;;;;;;7.50;2.60;;;;;;;24.44;32.39;100757.17;134121;1300;22451;-77
2023/05/30 10:16:07;;;;;;;10.40;2.80;;;;;;;24.62;32.03;100752.47;134103;1299;22215;-77
2023/05/30 10:19:12;;;;;;;9.30;2.70;;;;;;;24.69;31.94;100752.86;134113;1299;22346;-78
2023/05/30 10:22:14;;;;;;;8.20;2.80;;;;;;;24.56;31.67;100756.86;134166;1298;23153;-77
2023/05/30 10:25:18;;;;;;;6.90;2.40;;;;;;;24.41;31.63;100755.80;134085;1298;22427;-77
2023/05/30 10:28:28;;;;;;;9.50;3.00;;;;;;;24.48;32.20;100755.90;134001;1301;22381;-77
2023/05/30 10:31:31;;;;;;;6.80;3.20;;;;;;;24.65;32.20;100752.35;134088;1299;22521;-81
2023/05/30 10:34:41;;;;;;;8.30;2.80;;;;;;;24.74;32.07;100746.97;134126;1298;22134;-82
2023/05/30 10:37:45;;;;;;;7.00;2.70;;;;;;;24.76;31.87;100747.88;134099;1299;22350;-79
2023/05/30 10:41:27;;;;;;;10.40;2.80;;;;;;;24.81;31.70;100747.85;134064;1298;22506;-79
2023/05/30 10:44:55;;;;;;;12.60;2.90;;;;;;;24.75;31.45;100748.02;134121;1298;22377;-80
2023/05/30 10:48:11;;;;;;;7.50;2.70;;;;;;;24.75;31.78;100747.16;133928;1298;22436;-79
2023/05/30 10:51:16;;;;;;;6.50;3.00;;;;;;;24.74;31.14;100748.81;134074;1303;22473;-81
2023/05/30 10:54:17;;;;;;;8.00;2.60;;;;;;;24.66;31.69;100745.42;133919;1304;22437;-89
2023/05/30 10:57:33;;;;;;;7.80;3.10;;;;;;;24.78;31.51;100746.71;134106;1297;22517;-81
2023/05/30 11:00:34;;;;;;;9.60;2.80;;;;;;;24.76;31.34;100736.14;134066;1299;23181;-87
2023/05/30 11:04:13;;;;;;;5.30;2.60;;;;;;;24.76;31.43;100739.69;134083;1297;22419;-80
2023/05/30 11:07:43;;;;;;;7.90;2.90;;;;;;;24.50;31.24;100742.30;133928;1298;23723;-82
2023/05/30 11:10:58;;;;;;;6.90;2.80;;;;;;;24.33;31.18;100742.63;133777;1299;22377;-79
2023/05/30 11:14:04;;;;;;;8.80;2.90;;;;;;;24.37;30.87;100737.61;133914;1298;22377;-80
2023/05/30 11:17:06;;;;;;;12.70;2.70;;;;;;;24.46;31.21;100735.58;134065;1298;22440;-79
2023/05/30 11:20:26;;;;;;;10.00;3.10;;;;;;;24.24;30.69;100741.38;134034;1297;22392;-80
2023/05/30 11:23:59;;;;;;;9.10;3.00;;;;;;;23.84;30.79;100739.33;133885;1301;23273;-80
2023/05/30 11:27:16;;;;;;;8.90;2.60;;;;;;;23.86;30.82;100744.04;134004;1298;22234;-81
2023/05/30 11:30:21;;;;;;;5.60;2.90;;;;;;;23.76;30.65;100747.15;133991;1298;22345;-80
2023/05/30 11:33:24;;;;;;;8.40;3.00;;;;;;;23.77;31.18;100744.23;133957;1298;22422;-83
2023/05/30 11:36:25;;;;;;;6.60;2.70;;;;;;;23.81;30.61;100745.56;133884;1300;22349;-80
2023/05/30 11:39:46;;;;;;;6.20;2.90;;;;;;;23.80;30.88;100747.60;134089;1299;22445;-87
2023/05/30 11:43:07;;;;;;;9.70;2.90;;;;;;;23.76;30.43;100751.19;134106;1299;22404;-79
2023/05/30 11:46:31;;;;;;;7.60;2.20;;;;;;;23.77;30.32;100753.02;134030;1298;22426;-80
2023/05/30 11:49:44;;;;;;;;;;;;;;;;;;;;;
2023/05/30 11:52:56;;;;;;;9.30;2.40;;;;;;;23.68;29.67;100756.48;134017;1291;22432;-76
2023/05/30 11:55:56;;;;;;;8.60;2.50;;;;;;;23.33;29.29;100757.05;133984;1298;22442;-76
2023/05/30 11:58:58;;;;;;;6.50;2.40;;;;;;;22.90;29.16;100760.34;134096;1298;23132;-76
2023/05/30 12:02:01;;;;;;;5.50;2.80;;;;;;;22.55;29.39;100760.19;134069;1299;22639;-81
2023/05/30 12:05:02;;;;;;;5.80;2.40;;;;;;;22.72;29.56;100757.98;134115;1298;22378;-77
2023/05/30 12:08:06;;;;;;;4.60;2.20;;;;;;;22.87;29.21;100758.03;134109;1299;22841;-76
2023/05/30 12:11:10;;;;;;;6.30;2.30;;;;;;;22.71;28.53;100754.98;134095;1298;22426;-76
2023/05/30 12:14:14;;;;;;;5.20;2.10;;;;;;;22.44;29.06;100757.20;134097;1298;22420;-77
2023/05/30 12:17:21;;;;;;;9.10;2.60;;;;;;;22.71;29.20;100752.91;134102;1297;22359;-76
2023/05/30 12:20:25;;;;;;;4.30;2.00;;;;;;;23.06;28.57;100747.69;134071;1298;22212;-76
2023/05/30 12:23:31;;;;;;;6.60;2.40;;;;;;;23.34;28.06;100751.01;133935;1300;22472;-76
2023/05/30 12:26:32;;;;;;;5.40;2.30;;;;;;;23.43;28.01;100749.05;134107;1298;22459;-76
2023/05/30 12:29:34;;;;;;;5.70;2.70;;;;;;;23.47;28.45;100744.64;134137;1298;23033;-76
2023/05/30 12:32:35;;;;;;;5.80;2.30;;;;;;;23.48;27.36;100751.38;133857;1298;22356;-76
2023/05/30 12:35:40;;;;;;;7.60;2.70;;;;;;;22.97;27.04;100762.63;134071;1297;22453;-76
2023/05/30 12:38:41;;;;;;;5.00;2.20;;;;;;;22.57;27.55;100762.51;134081;1298;22477;-77
2023/05/30 12:41:42;;;;;;;7.40;2.30;;;;;;;22.43;27.99;100758.04;134087;1298;22670;-77
2023/05/30 12:44:57;;;;;;;7.90;2.30;;;;;;;22.62;28.29;100757.89;134120;1298;22370;-77
2023/05/30 12:47:58;;;;;;;4.90;2.30;;;;;;;22.83;28.29;100761.89;134072;1294;22456;-80
2023/05/30 12:50:59;;;;;;;5.70;2.30;;;;;;;22.93;27.91;100753.88;134121;1297;23252;-77
2023/05/30 12:54:00;;;;;;;7.60;2.50;;;;;;;22.90;27.95;100759.36;134070;1299;22363;-77
2023/05/30 12:57:01;;;;;;;5.60;2.20;;;;;;;23.00;28.32;100757.58;134085;1298;23313;-77
2023/05/30 13:00:02;;;;;;;5.70;2.50;;;;;;;22.89;27.78;100757.27;134101;1298;22468;-76
2023/05/30 13:03:03;;;;;;;7.30;2.10;;;;;;;22.63;28.68;100757.15;134061;1298;22403;-77
2023/05/30 13:06:05;;;;;;;5.60;2.60;;;;;;;22.57;28.55;100753.63;133958;1301;22436;-76
2023/05/30 13:09:06;;;;;;;11.20;2.70;;;;;;;22.64;28.02;100753.77;134040;1298;22421;-76
2023/05/30 13:12:08;;;;;;;5.00;2.20;;;;;;;22.78;27.95;100753.98;134081;1297;23205;-77
2023/05/30 13:15:09;;;;;;;5.50;2.50;;;;;;;22.90;27.93;100753.02;134054;1299;22408;-76
2023/05/30 13:18:10;;;;;;;7.90;2.20;;;;;;;22.86;27.77;100758.02;134084;1305;22491;-76
2023/05/30 13:21:11;;;;;;;6.60;2.20;;;;;;;22.87;27.70;100753.21;134069;1298;22433;-77
2023/05/30 13:24:12;;;;;;;4.40;2.20;;;;;;;22.97;27.93;100755.17;134073;1300;22563;-75
2023/05/30 13:27:12;;;;;;;5.20;2.60;;;;;;;22.98;27.76;100753.61;134076;1297;22373;-77
2023/05/30 13:30:17;;;;;;;7.80;1.90;;;;;;;23.02;28.00;100749.45;134059;1297;22350;-77
2023/05/30 13:33:18;;;;;;;4.20;2.10;;;;;;;23.15;27.94;100743.91;134077;1297;22410;-76
2023/05/30 13:36:21;;;;;;;10.70;2.60;;;;;;;23.16;28.09;100738.90;134076;1298;23189;-76
2023/05/30 13:39:22;;;;;;;7.50;2.00;;;;;;;23.15;28.14;100744.58;134130;1297;22360;-76
2023/05/30 13:42:23;;;;;;;5.80;2.40;;;;;;;23.11;28.09;100742.54;134106;1298;23265;-77
2023/05/30 13:45:24;;;;;;;4.00;2.20;;;;;;;23.09;28.22;100741.77;134148;1297;22432;-76
2023/05/30 13:48:24;;;;;;;7.20;2.40;;;;;;;23.11;28.36;100735.00;134098;1299;23169;-76
2023/05/30 13:51:26;;;;;;;5.20;2.40;;;;;;;23.09;28.40;100733.28;134106;1298;22472;-76
2023/05/30 13:54:26;;;;;;;7.90;2.60;;;;;;;23.10;28.78;100731.52;134105;1299;22397;-77
2023/05/30 13:57:27;;;;;;;8.60;2.70;;;;;;;22.99;28.82;100737.02;134124;1297;22361;-77
2023/05/30 14:00:28;;;;;;;5.90;2.30;;;;;;;22.88;28.81;100741.05;134109;1298;22182;-76
2023/05/30 14:03:29;;;;;;;6.70;2.50;;;;;;;22.83;28.51;100735.92;134111;1298;23231;-78